CheckWX is a tool to help pilots better visualize weather data.  It is not intended as a substitute for an official pre-flight weather briefing.

05:21:08 UTC

EPLL METAR
Łódź Władysław Reymont Airport
Łódź, Poland
Current

21 mins ago

EPLL 200500Z 26011KT 9999 BKN018 05/02 Q1015
Observed
Feb-20 @ 05:00 UTC
Wind
  • 260° at 11 KTS
Visibility
10,000+ meters
Flight Rules
MVFR
Cloud Levels
  • Broken at 1,800' AGL
Temperature
C / 41°F
Dewpoint
C / 36°F
Humidity
81%
Altimeter
29.97" Hg
Pressure
1014.92 hPa
Previous

51 mins ago

EPLL 200430Z 26011KT 9999 BKN015 05/02 Q1015
Observed
Feb-20 @ 04:30 UTC
Wind
  • 260° at 11 KTS
Visibility
10,000+ meters
Flight Rules
MVFR
Cloud Levels
  • Broken at 1,500' AGL
Temperature
C / 41°F
Dewpoint
C / 36°F
Humidity
81%
Altimeter
29.97" Hg
Pressure
1014.92 hPa
Previous

1 hour ago

EPLL 200400Z 26012KT 9999 SCT017 BKN025 05/02 Q1015
Observed
Feb-20 @ 04:00 UTC
Wind
  • 260° at 12 KTS
Visibility
10,000+ meters
Flight Rules
MVFR
Cloud Levels
  • Scattered at 1,700' AGL
  • Broken at 2,500' AGL
Temperature
C / 41°F
Dewpoint
C / 36°F
Humidity
81%
Altimeter
29.97" Hg
Pressure
1014.92 hPa